Time;durP1;ratioP1;P1;durP2;ratioP2;P2;SDS_P1;SDS_P2;PMS_P1;PMS_P2;Temp;Humidity;BMP_temperature;BMP_pressure;BME280_temperature;BME280_humidity;BME280_pressure;Samples;Min_cycle;Max_cycle;Signal;HPM_P1;HPM_P2
2021/08/28 00:01:49;;;;;;;2.03;1.60;;;14.50;99.90;;;;;;5072816;28;20555;-65
2021/08/28 00:04:14;;;;;;;1.90;1.60;;;14.50;99.90;;;;;;5072801;28;20172;-64
2021/08/28 00:06:40;;;;;;;1.80;1.70;;;14.50;99.90;;;;;;5072402;28;20199;-64
2021/08/28 00:09:06;;;;;;;2.30;2.10;;;14.50;99.90;;;;;;5063058;28;20206;-64
2021/08/28 00:11:31;;;;;;;2.07;1.80;;;14.50;99.90;;;;;;5052809;28;20186;-64
2021/08/28 00:13:57;;;;;;;3.67;2.17;;;14.50;99.90;;;;;;5052304;28;20208;-63
2021/08/28 00:16:23;;;;;;;2.43;2.20;;;14.50;99.90;;;;;;5053019;28;20601;-64
2021/08/28 00:18:48;;;;;;;2.30;2.10;;;14.40;99.90;;;;;;5052226;28;20193;-64
2021/08/28 00:21:14;;;;;;;2.50;2.30;;;14.40;99.90;;;;;;5058988;28;20180;-64
2021/08/28 00:23:39;;;;;;;2.67;2.07;;;14.50;99.90;;;;;;5072870;28;20207;-64
2021/08/28 00:26:05;;;;;;;2.50;1.67;;;14.50;99.90;;;;;;5072768;28;20266;-64
2021/08/28 00:28:31;;;;;;;2.90;2.70;;;14.50;99.90;;;;;;5072137;28;20195;-65
2021/08/28 00:30:56;;;;;;;2.73;2.20;;;14.50;99.90;;;;;;5072518;28;20182;-64
2021/08/28 00:33:22;;;;;;;2.10;2.00;;;14.50;99.90;;;;;;5074502;28;20657;-64
2021/08/28 00:35:48;;;;;;;2.57;2.37;;;14.50;99.90;;;;;;5075790;28;20180;-65
2021/08/28 00:38:13;;;;;;;3.23;3.00;;;14.50;99.90;;;;;;5075646;28;20204;-64
2021/08/28 00:40:39;;;;;;;2.57;2.37;;;14.50;99.90;;;;;;5075903;28;20177;-64
2021/08/28 00:43:05;;;;;;;3.03;2.77;;;14.60;99.90;;;;;;5074571;28;20634;-64
2021/08/28 00:45:40;;;;;;;2.30;2.10;;;14.60;99.90;;;;;;5056332;28;20433;-64
2021/08/28 00:48:09;;;;;;;2.50;1.90;;;14.60;99.90;;;;;;5055399;28;20462;-64
2021/08/28 00:50:37;;;;;;;4.40;1.83;;;14.50;99.90;;;;;;5056119;28;20458;-64
2021/08/28 00:53:04;;;;;;;2.07;1.97;;;14.50;99.90;;;;;;5055999;28;20434;-64
2021/08/28 00:55:31;;;;;;;1.63;1.53;;;14.50;99.90;;;;;;5055823;28;20411;-65
2021/08/28 00:57:58;;;;;;;1.70;1.60;;;14.50;99.90;;;;;;5055971;28;20381;-65
2021/08/28 01:00:24;;;;;;;7.13;1.97;;;14.50;99.90;;;;;;5075962;28;20410;-65
2021/08/28 01:02:51;;;;;;;2.17;1.97;;;14.50;99.90;;;;;;5075907;28;20407;-65
2021/08/28 01:05:19;;;;;;;6.00;1.90;;;14.50;99.90;;;;;;5075669;28;20446;-65
2021/08/28 01:07:50;;;;;;;1.77;1.67;;;14.50;99.90;;;;;;5074460;28;20549;-65
2021/08/28 01:10:19;;;;;;;1.90;1.77;;;14.50;99.90;;;;;;5074190;28;20935;-64
2021/08/28 01:12:47;;;;;;;2.23;2.13;;;14.50;99.90;;;;;;5075688;28;20388;-65
2021/08/28 01:15:16;;;;;;;2.13;1.97;;;14.50;99.90;;;;;;5074386;28;20481;-64
2021/08/28 01:17:48;;;;;;;2.00;1.90;;;14.50;99.90;;;;;;5075130;28;20410;-65
2021/08/28 01:20:46;;;;;;;2.30;2.10;;;14.50;99.90;;;;;;5075479;28;20513;-65
2021/08/28 01:23:12;;;;;;;1.80;1.70;;;14.50;99.90;;;;;;5058912;28;20439;-64
2021/08/28 01:25:40;;;;;;;3.53;2.00;;;14.50;99.90;;;;;;5075294;28;20409;-64
2021/08/28 01:28:09;;;;;;;1.60;1.60;;;14.50;99.90;;;;;;5074634;28;20465;-64
2021/08/28 01:30:38;;;;;;;2.77;2.37;;;14.50;99.90;;;;;;5075341;28;20429;-65
2021/08/28 01:33:05;;;;;;;2.33;2.13;;;14.50;99.90;;;;;;5075130;28;20433;-64
2021/08/28 01:35:31;;;;;;;2.00;1.90;;;14.50;99.90;;;;;;5057554;28;20427;-64
2021/08/28 01:37:58;;;;;;;2.17;2.07;;;14.50;99.90;;;;;;5054660;28;20413;-64
2021/08/28 01:40:27;;;;;;;2.77;2.60;;;14.50;99.90;;;;;;5054901;28;20773;-65
2021/08/28 01:42:53;;;;;;;1.87;1.77;;;14.50;99.90;;;;;;5055017;28;20385;-64
2021/08/28 01:45:25;;;;;;;1.67;1.57;;;14.50;99.90;;;;;;5054950;28;20409;-64
2021/08/28 01:47:52;;;;;;;2.47;2.27;;;14.50;99.90;;;;;;5054414;28;20454;-64
2021/08/28 01:50:20;;;;;;;2.50;2.30;;;14.50;99.90;;;;;;5054718;28;20433;-64
2021/08/28 01:52:47;;;;;;;2.13;1.90;;;14.50;99.90;;;;;;5055078;28;20805;-64
2021/08/28 01:55:16;;;;;;;2.00;1.73;;;14.50;99.90;;;;;;5054803;28;20462;-64
2021/08/28 01:57:43;;;;;;;1.40;1.30;;;14.50;99.90;;;;;;5055209;28;20431;-65
2021/08/28 02:00:09;;;;;;;1.80;1.70;;;14.50;99.90;;;;;;5054915;28;20435;-64
2021/08/28 02:02:35;;;;;;;1.93;1.83;;;14.50;99.90;;;;;;5054645;28;20415;-64
2021/08/28 02:05:02;;;;;;;2.90;2.10;;;14.50;99.90;;;;;;5053106;28;20433;-64
2021/08/28 02:07:37;;;;;;;7.80;2.17;;;14.50;99.90;;;;;;5054074;28;20244;-64
2021/08/28 02:10:07;;;;;;;1.70;1.60;;;14.50;99.90;;;;;;5054622;28;20445;-64
2021/08/28 02:12:37;;;;;;;2.73;2.53;;;14.50;99.90;;;;;;5054256;28;20463;-64
2021/08/28 02:15:11;;;;;;;2.67;2.47;;;14.40;99.90;;;;;;5054747;28;20452;-64
2021/08/28 02:17:49;;;;;;;4.03;2.87;;;14.40;99.90;;;;;;5054027;28;20415;-65
2021/08/28 02:20:16;;;;;;;2.80;2.60;;;14.40;99.90;;;;;;5054277;28;20431;-64
2021/08/28 02:22:46;;;;;;;3.33;2.90;;;14.40;99.90;;;;;;5054184;28;20414;-65
2021/08/28 02:25:22;;;;;;;3.90;2.90;;;14.40;99.90;;;;;;5072231;28;20437;-64
2021/08/28 02:27:52;;;;;;;3.83;3.10;;;14.40;99.90;;;;;;5073734;28;20457;-64
2021/08/28 02:30:19;;;;;;;4.43;3.23;;;14.40;99.90;;;;;;5074096;28;20438;-65
2021/08/28 02:32:50;;;;;;;3.77;3.07;;;14.40;99.90;;;;;;5072459;28;20940;-64
2021/08/28 02:35:16;;;;;;;4.07;3.63;;;14.40;99.90;;;;;;5073990;28;20410;-65
2021/08/28 02:37:43;;;;;;;3.40;3.10;;;14.40;99.90;;;;;;5073137;28;20417;-64
2021/08/28 02:40:12;;;;;;;5.67;2.80;;;14.30;99.90;;;;;;5053567;28;20591;-64
2021/08/28 02:42:39;;;;;;;2.70;2.50;;;14.30;99.90;;;;;;5053595;28;20407;-64
2021/08/28 02:45:06;;;;;;;3.93;3.53;;;14.30;99.90;;;;;;5053864;28;20796;-64
2021/08/28 02:47:33;;;;;;;3.83;2.60;;;14.30;99.90;;;;;;5053261;28;20458;-64
2021/08/28 02:50:00;;;;;;;3.40;3.10;;;14.30;99.90;;;;;;5053644;28;20519;-65
2021/08/28 02:52:28;;;;;;;2.73;2.53;;;14.30;99.90;;;;;;5054760;28;20423;-64
2021/08/28 02:55:00;;;;;;;3.33;3.03;;;14.30;99.90;;;;;;5073385;28;20410;-63
2021/08/28 02:57:27;;;;;;;5.50;3.70;;;14.30;99.90;;;;;;5073103;28;20496;-64
2021/08/28 02:59:54;;;;;;;5.30;3.93;;;14.30;99.90;;;;;;5073498;28;20839;-64
2021/08/28 03:02:20;;;;;;;4.30;3.33;;;14.30;99.90;;;;;;5072305;28;20934;-65
2021/08/28 03:04:47;;;;;;;3.93;3.17;;;14.20;99.90;;;;;;5073783;28;20493;-64
2021/08/28 03:07:13;;;;;;;4.70;4.30;;;14.20;99.90;;;;;;5071231;28;20490;-64
2021/08/28 03:09:40;;;;;;;4.27;3.87;;;14.20;99.90;;;;;;5073212;28;20421;-64
2021/08/28 03:12:06;;;;;;;4.70;4.23;;;14.20;99.90;;;;;;5073354;28;20406;-64
2021/08/28 03:14:32;;;;;;;3.90;3.30;;;14.20;99.90;;;;;;5073252;28;20410;-63
2021/08/28 03:16:59;;;;;;;4.07;3.67;;;14.20;99.90;;;;;;5073069;28;20442;-64
2021/08/28 03:19:27;;;;;;;4.63;3.67;;;14.20;99.90;;;;;;5073218;28;20282;-64
2021/08/28 03:21:55;;;;;;;14.00;4.23;;;14.20;99.90;;;;;;5071968;28;20405;-64
2021/08/28 03:24:25;;;;;;;6.23;4.27;;;14.20;99.90;;;;;;5053236;28;20765;-64
2021/08/28 03:26:53;;;;;;;6.17;4.47;;;14.20;99.90;;;;;;5052779;28;20498;-64
2021/08/28 03:29:20;;;;;;;5.60;4.20;;;14.20;99.90;;;;;;5053219;28;20497;-65
2021/08/28 03:31:47;;;;;;;6.87;4.97;;;14.20;99.90;;;;;;5053017;28;20828;-64
2021/08/28 03:34:14;;;;;;;7.07;4.70;;;14.20;99.90;;;;;;5053173;28;20432;-64
2021/08/28 03:36:42;;;;;;;3.60;3.27;;;14.20;99.90;;;;;;5053892;28;20391;-64
2021/08/28 03:39:08;;;;;;;9.67;4.17;;;14.20;99.90;;;;;;5064948;28;20445;-64
2021/08/28 03:41:34;;;;;;;3.90;3.50;;;14.20;99.90;;;;;;5053034;28;20439;-64
2021/08/28 03:43:59;;;;;;;5.97;3.70;;;14.20;99.90;;;;;;5053187;28;20454;-64
2021/08/28 03:46:26;;;;;;;4.80;4.37;;;14.20;99.90;;;;;;5053221;28;20192;-65
2021/08/28 03:48:51;;;;;;;4.60;3.87;;;14.20;99.90;;;;;;5052549;28;20220;-64
2021/08/28 03:51:17;;;;;;;6.17;4.67;;;14.20;99.90;;;;;;5053230;28;20407;-64
2021/08/28 03:53:43;;;;;;;7.13;4.87;;;14.20;99.90;;;;;;5053422;28;20200;-64
2021/08/28 03:56:08;;;;;;;6.37;5.67;;;14.20;99.90;;;;;;5052885;28;20630;-64
2021/08/28 03:58:34;;;;;;;7.53;4.90;;;14.20;99.90;;;;;;5054181;28;20318;-64
2021/08/28 04:01:01;;;;;;;4.90;3.70;;;14.20;99.90;;;;;;5072907;28;20171;-65
2021/08/28 04:03:26;;;;;;;5.47;4.53;;;14.20;99.90;;;;;;5072846;28;20494;-65
2021/08/28 04:05:52;;;;;;;5.73;4.07;;;14.20;99.90;;;;;;5072953;28;20552;-65
2021/08/28 04:08:18;;;;;;;6.60;4.70;;;14.20;99.90;;;;;;5074578;28;20210;-64
2021/08/28 04:10:43;;;;;;;8.20;4.70;;;14.10;99.90;;;;;;5076658;28;20175;-65
2021/08/28 04:13:09;;;;;;;6.80;5.07;;;14.10;99.90;;;;;;5076502;28;20167;-65
2021/08/28 04:15:35;;;;;;;7.10;4.40;;;14.10;99.90;;;;;;5077072;28;20627;-65
2021/08/28 04:18:00;;;;;;;6.00;4.70;;;14.10;99.90;;;;;;5076240;28;20180;-64
2021/08/28 04:20:26;;;;;;;5.23;4.10;;;14.10;99.90;;;;;;5076613;28;20277;-65
2021/08/28 04:22:52;;;;;;;10.00;5.27;;;14.10;99.90;;;;;;5076626;28;20183;-65
2021/08/28 04:25:17;;;;;;;7.37;5.33;;;14.10;99.90;;;;;;5076719;28;20205;-64
2021/08/28 04:27:43;;;;;;;7.57;6.20;;;14.10;99.90;;;;;;5075332;28;20266;-66
2021/08/28 04:30:09;;;;;;;5.67;4.63;;;14.10;99.90;;;;;;5076263;28;20643;-65
2021/08/28 04:32:38;;;;;;;7.53;5.27;;;14.10;99.90;;;;;;5076402;28;20287;-64
2021/08/28 04:35:04;;;;;;;8.93;5.60;;;14.10;99.90;;;;;;5076190;28;20398;-64
2021/08/28 04:37:29;;;;;;;6.00;4.80;;;14.10;99.90;;;;;;5075867;28;20420;-64
2021/08/28 04:39:55;;;;;;;6.83;4.90;;;14.10;99.90;;;;;;5076233;28;20496;-64
2021/08/28 04:42:20;;;;;;;8.50;5.67;;;14.20;99.90;;;;;;5076244;28;20171;-64
2021/08/28 04:44:46;;;;;;;7.10;4.47;;;14.10;99.90;;;;;;5072762;28;20274;-65
2021/08/28 04:47:12;;;;;;;8.70;5.40;;;14.10;99.90;;;;;;5075565;28;20238;-65
2021/08/28 04:49:37;;;;;;;8.07;6.50;;;14.20;99.90;;;;;;5063999;28;20222;-64
2021/08/28 04:52:04;;;;;;;7.47;5.90;;;14.20;99.90;;;;;;5055903;28;20173;-65
2021/08/28 04:54:31;;;;;;;7.27;5.20;;;14.20;99.90;;;;;;5066371;28;20574;-65
2021/08/28 04:56:57;;;;;;;7.10;6.13;;;14.20;99.90;;;;;;5075384;28;20435;-65
2021/08/28 04:59:22;;;;;;;8.17;5.43;;;14.10;99.90;;;;;;5075457;28;20830;-66
2021/08/28 05:01:48;;;;;;;12.87;6.10;;;14.10;99.90;;;;;;5075555;28;20721;-63
2021/08/28 05:04:14;;;;;;;9.20;5.33;;;14.10;99.90;;;;;;5075590;28;20208;-63
2021/08/28 05:06:40;;;;;;;7.03;5.60;;;14.10;99.90;;;;;;5074792;28;20458;-64
2021/08/28 05:09:05;;;;;;;8.17;6.50;;;14.00;99.90;;;;;;5066462;28;20560;-64
2021/08/28 05:11:31;;;;;;;6.93;5.87;;;14.10;99.90;;;;;;5054390;28;20275;-65
2021/08/28 05:13:56;;;;;;;7.23;5.27;;;14.10;99.90;;;;;;5055544;28;20258;-64
2021/08/28 05:16:22;;;;;;;8.03;5.33;;;14.10;99.90;;;;;;5055423;28;20255;-65
2021/08/28 05:18:47;;;;;;;9.43;5.47;;;14.00;99.90;;;;;;5054504;28;20599;-64
2021/08/28 05:21:13;;;;;;;7.23;5.03;;;14.00;99.90;;;;;;5055504;28;20173;-64
2021/08/28 05:23:40;;;;;;;6.60;5.83;;;14.00;99.90;;;;;;5064029;28;20190;-65
2021/08/28 05:26:06;;;;;;;7.13;6.43;;;14.00;99.90;;;;;;5075433;28;20164;-65
2021/08/28 05:28:32;;;;;;;7.07;5.80;;;14.00;99.90;;;;;;5074710;28;20948;-64
2021/08/28 05:30:57;;;;;;;8.10;6.50;;;14.00;99.90;;;;;;5075496;28;20656;-64
2021/08/28 05:33:23;;;;;;;10.40;7.83;;;14.00;99.90;;;;;;5075206;28;20603;-64
2021/08/28 05:35:49;;;;;;;9.37;6.80;;;14.10;99.90;;;;;;5075235;28;20171;-65
2021/08/28 05:38:14;;;;;;;9.60;6.40;;;14.10;99.90;;;;;;5058721;28;20544;-65
2021/08/28 05:40:40;;;;;;;7.40;5.93;;;14.10;99.90;;;;;;5055182;28;20497;-66
2021/08/28 05:43:06;;;;;;;9.50;6.77;;;14.10;99.90;;;;;;5054958;28;20652;-65
2021/08/28 05:45:32;;;;;;;7.90;5.90;;;14.10;99.90;;;;;;5055003;28;20646;-65
2021/08/28 05:47:57;;;;;;;9.90;7.17;;;14.20;99.90;;;;;;5054632;28;20215;-65
2021/08/28 05:50:23;;;;;;;11.90;6.53;;;14.20;99.90;;;;;;5054885;28;20180;-65
2021/08/28 05:52:48;;;;;;;9.50;6.93;;;14.20;99.90;;;;;;5074084;28;20180;-65
2021/08/28 05:55:14;;;;;;;9.90;6.70;;;14.30;99.90;;;;;;5074823;28;20242;-65
2021/08/28 05:57:43;;;;;;;9.30;6.57;;;14.30;99.90;;;;;;5061003;28;20516;-64
2021/08/28 06:00:10;;;;;;;7.80;6.40;;;14.40;99.90;;;;;;5054652;28;20201;-64
2021/08/28 06:02:39;;;;;;;7.03;6.33;;;14.40;99.90;;;;;;5054568;28;20403;-63
2021/08/28 06:05:12;;;;;;;9.97;5.77;;;14.50;99.90;;;;;;5054693;28;20499;-65
2021/08/28 06:07:37;;;;;;;8.47;6.80;;;14.60;99.90;;;;;;5054221;28;20491;-64
2021/08/28 06:10:04;;;;;;;8.67;6.20;;;14.70;99.90;;;;;;5054206;28;20964;-65
2021/08/28 06:12:31;;;;;;;7.50;5.90;;;14.80;99.90;;;;;;5067474;28;20200;-65
2021/08/28 06:14:56;;;;;;;7.27;6.57;;;14.90;99.90;;;;;;5074333;28;20816;-65
2021/08/28 06:17:22;;;;;;;8.47;7.17;;;15.00;99.90;;;;;;5073831;28;20427;-64
2021/08/28 06:19:48;;;;;;;8.30;7.00;;;15.20;99.90;;;;;;5074296;28;20279;-65
2021/08/28 06:22:13;;;;;;;7.37;6.67;;;15.20;99.90;;;;;;5074353;28;20199;-64
2021/08/28 06:24:39;;;;;;;6.90;5.83;;;15.30;99.90;;;;;;5075751;28;20190;-64
2021/08/28 06:27:05;;;;;;;9.60;5.70;;;15.50;99.90;;;;;;5076627;28;20288;-64
2021/08/28 06:29:30;;;;;;;7.20;4.90;;;15.60;99.90;;;;;;5073641;28;20693;-65
2021/08/28 06:31:56;;;;;;;5.73;4.87;;;15.70;99.90;;;;;;5076389;28;20192;-63
2021/08/28 06:34:22;;;;;;;6.80;5.43;;;15.70;99.90;;;;;;5081146;28;20183;-63
2021/08/28 06:36:48;;;;;;;6.37;5.30;;;15.90;99.90;;;;;;5093581;28;20165;-63
2021/08/28 06:39:14;;;;;;;4.50;3.80;;;16.00;99.90;;;;;;5094083;28;20442;-64
2021/08/28 06:41:39;;;;;;;5.87;5.20;;;16.20;99.90;;;;;;5094189;28;20381;-64
2021/08/28 06:44:05;;;;;;;5.30;4.53;;;16.30;99.90;;;;;;5085317;28;20257;-64
2021/08/28 06:46:31;;;;;;;4.87;3.80;;;16.40;99.90;;;;;;5073401;28;20178;-65
2021/08/28 06:48:57;;;;;;;4.63;4.27;;;16.50;99.90;;;;;;5073288;28;20191;-65
2021/08/28 06:51:23;;;;;;;3.63;3.33;;;16.40;99.90;;;;;;5073426;28;20201;-64
2021/08/28 06:53:49;;;;;;;3.63;3.10;;;16.50;99.90;;;;;;5073244;28;20404;-63
2021/08/28 06:56:16;;;;;;;3.63;3.33;;;16.50;99.90;;;;;;5073390;28;20828;-63
2021/08/28 06:58:42;;;;;;;2.90;2.70;;;16.70;99.90;;;;;;5070794;28;20445;-64
2021/08/28 07:01:07;;;;;;;2.80;2.57;;;16.80;99.90;;;;;;5073418;28;20468;-64
2021/08/28 07:03:33;;;;;;;3.60;2.70;;;16.90;99.90;;;;;;5073553;28;20493;-64
2021/08/28 07:05:59;;;;;;;3.43;2.40;;;17.00;99.90;;;;;;5073512;28;20175;-66
2021/08/28 07:08:24;;;;;;;3.00;2.77;;;17.00;99.90;;;;;;5072744;28;20213;-65
2021/08/28 07:10:50;;;;;;;2.63;2.43;;;17.10;99.90;;;;;;5072065;28;20218;-65
2021/08/28 07:13:16;;;;;;;3.20;2.90;;;17.10;99.90;;;;;;5072656;28;20740;-65
2021/08/28 07:15:41;;;;;;;3.43;2.40;;;17.10;99.90;;;;;;5073417;28;20177;-65
2021/08/28 07:18:09;;;;;;;2.27;2.07;;;17.10;99.90;;;;;;5072996;28;20175;-66
2021/08/28 07:20:38;;;;;;;2.43;2.23;;;17.20;99.90;;;;;;5071976;28;20182;-66
2021/08/28 07:23:04;;;;;;;2.90;2.70;;;17.20;99.90;;;;;;5073408;28;20410;-65
2021/08/28 07:25:30;;;;;;;2.80;2.43;;;17.20;99.90;;;;;;5073197;28;20386;-64
2021/08/28 07:27:56;;;;;;;3.80;2.80;;;17.10;99.90;;;;;;5067292;28;20458;-65
2021/08/28 07:30:21;;;;;;;3.13;2.83;;;17.00;99.90;;;;;;5053256;28;20387;-64
2021/08/28 07:32:48;;;;;;;2.73;2.53;;;16.70;99.90;;;;;;5053124;28;20275;-64
2021/08/28 07:35:14;;;;;;;2.90;2.70;;;16.60;99.90;;;;;;5053247;28;20173;-65
2021/08/28 07:37:40;;;;;;;3.07;2.77;;;16.50;99.90;;;;;;5052808;28;20421;-65
2021/08/28 07:40:06;;;;;;;3.10;2.90;;;16.40;99.90;;;;;;5052968;28;20939;-65
2021/08/28 07:42:32;;;;;;;3.77;3.03;;;16.50;99.90;;;;;;5059430;28;20178;-64
2021/08/28 07:44:58;;;;;;;3.50;3.07;;;16.50;99.90;;;;;;5062296;28;20795;-64
2021/08/28 07:47:23;;;;;;;3.43;3.23;;;16.50;99.90;;;;;;5056815;28;20191;-64
2021/08/28 07:49:49;;;;;;;3.13;2.90;;;16.50;99.90;;;;;;5057342;28;20202;-65
2021/08/28 07:52:18;;;;;;;3.20;2.93;;;16.50;99.90;;;;;;5057516;28;20261;-64
2021/08/28 07:54:46;;;;;;;2.93;2.53;;;16.50;99.90;;;;;;5057018;28;20174;-64
2021/08/28 07:57:12;;;;;;;2.70;2.50;;;16.60;99.90;;;;;;5059286;28;20426;-65
2021/08/28 07:59:38;;;;;;;2.93;2.73;;;16.50;99.90;;;;;;5069933;28;20863;-64
2021/08/28 08:02:04;;;;;;;2.83;2.50;;;16.50;99.90;;;;;;5057107;28;20896;-64
2021/08/28 08:04:29;;;;;;;2.70;2.50;;;16.50;99.90;;;;;;5067329;28;20267;-64
2021/08/28 08:06:55;;;;;;;3.90;3.60;;;16.60;99.90;;;;;;5076375;28;20205;-64
2021/08/28 08:09:21;;;;;;;3.73;2.30;;;17.30;99.90;;;;;;5076743;28;20196;-64
2021/08/28 08:11:47;;;;;;;1.50;1.40;;;18.30;99.90;;;;;;5076775;28;20581;-64
2021/08/28 08:14:12;;;;;;;1.83;1.73;;;19.20;99.90;;;;;;5075597;28;20179;-65
2021/08/28 08:16:38;;;;;;;1.93;1.77;;;19.80;99.90;;;;;;5076531;28;20882;-65
2021/08/28 08:19:04;;;;;;;1.53;1.20;;;19.90;99.90;;;;;;5067186;28;20265;-64
2021/08/28 08:21:30;;;;;;;1.30;1.20;;;19.80;99.90;;;;;;5055279;28;20182;-66
2021/08/28 08:23:56;;;;;;;1.30;1.20;;;19.70;99.90;;;;;;5055352;28;20420;-64
2021/08/28 08:26:22;;;;;;;1.53;1.43;;;19.50;99.90;;;;;;5056439;28;20477;-64
2021/08/28 08:28:47;;;;;;;1.80;1.70;;;19.30;99.90;;;;;;5054813;28;20189;-63
2021/08/28 08:31:13;;;;;;;3.97;1.70;;;19.10;99.90;;;;;;5055390;28;20682;-63
2021/08/28 08:33:39;;;;;;;2.33;2.17;;;18.80;99.90;;;;;;5056309;28;20189;-63
2021/08/28 08:36:05;;;;;;;1.90;1.80;;;18.50;99.90;;;;;;5055130;28;20173;-63
2021/08/28 08:38:31;;;;;;;2.13;2.00;;;18.30;99.90;;;;;;5054577;28;20563;-64
2021/08/28 08:40:57;;;;;;;1.50;1.40;;;18.20;99.90;;;;;;5056638;28;20879;-63
2021/08/28 08:43:24;;;;;;;1.60;1.53;;;18.20;99.90;;;;;;5056252;28;20521;-67
2021/08/28 08:45:52;;;;;;;1.70;1.60;;;18.30;99.90;;;;;;5056313;28;20401;-63
2021/08/28 08:48:18;;;;;;;2.53;1.53;;;18.20;99.90;;;;;;5063412;28;20481;-64
2021/08/28 08:50:45;;;;;;;3.27;2.07;;;18.20;99.90;;;;;;5076013;28;20399;-63
2021/08/28 08:53:15;;;;;;;1.80;1.70;;;18.20;99.90;;;;;;5074255;28;20176;-64
2021/08/28 08:55:44;;;;;;;1.50;1.40;;;18.20;99.90;;;;;;5076130;28;20469;-64
2021/08/28 08:58:11;;;;;;;1.77;1.67;;;18.10;99.90;;;;;;5075156;28;20445;-64
2021/08/28 09:00:36;;;;;;;1.43;1.33;;;18.00;99.90;;;;;;5056031;28;20390;-64
2021/08/28 09:03:02;;;;;;;1.67;1.57;;;18.00;99.90;;;;;;5055873;28;20863;-64
2021/08/28 09:05:28;;;;;;;1.67;1.57;;;18.00;99.90;;;;;;5055882;28;20180;-65
2021/08/28 09:07:53;;;;;;;1.27;1.27;;;18.00;99.90;;;;;;5055142;28;20208;-64
2021/08/28 09:10:19;;;;;;;1.90;1.80;;;18.00;99.90;;;;;;5055843;28;20383;-64
2021/08/28 09:12:45;;;;;;;1.53;1.50;;;18.00;99.90;;;;;;5055963;28;20166;-64
2021/08/28 09:15:15;;;;;;;1.20;1.20;;;18.00;99.90;;;;;;5074413;28;20173;-63
2021/08/28 09:17:56;;;;;;;1.80;1.70;;;18.10;99.90;;;;;;5075550;28;20181;-64
2021/08/28 09:20:25;;;;;;;2.07;1.90;;;18.20;99.90;;;;;;5075853;28;20732;-64
2021/08/28 09:23:10;;;;;;;1.93;1.83;;;18.30;99.90;;;;;;5075549;28;20411;-64
2021/08/28 09:25:40;;;;;;;1.50;1.40;;;18.20;99.90;;;;;;5075544;28;20414;-66
2021/08/28 09:28:10;;;;;;;1.60;1.50;;;18.10;99.90;;;;;;5070065;28;20462;-63
2021/08/28 09:30:45;;;;;;;1.70;1.60;;;18.10;99.90;;;;;;5055669;28;20386;-64
2021/08/28 09:33:18;;;;;;;2.40;1.60;;;18.00;99.90;;;;;;5055240;28;20816;-64
2021/08/28 09:35:52;;;;;;;1.67;1.57;;;17.80;99.90;;;;;;5055552;28;20408;-64
2021/08/28 09:38:20;;;;;;;1.40;1.27;;;17.70;99.90;;;;;;5053573;28;20441;-66
2021/08/28 09:41:09;;;;;;;2.33;2.17;;;17.50;99.90;;;;;;5055246;28;20819;-66
2021/08/28 09:43:38;;;;;;;3.33;1.77;;;17.40;99.90;;;;;;5053933;28;20403;-66
2021/08/28 09:46:09;;;;;;;16.63;2.27;;;17.30;99.90;;;;;;5055119;28;20451;-64
2021/08/28 09:48:36;;;;;;;1.90;1.80;;;17.10;99.90;;;;;;5054440;28;20501;-63
2021/08/28 09:51:04;;;;;;;1.83;1.73;;;17.00;99.90;;;;;;5055392;28;20404;-63
2021/08/28 09:53:31;;;;;;;2.40;2.20;;;16.90;99.90;;;;;;5054860;28;20370;-65
2021/08/28 09:56:06;;;;;;;1.90;1.80;;;16.80;99.90;;;;;;5054931;28;20470;-64
2021/08/28 09:58:34;;;;;;;2.20;1.90;;;16.70;99.90;;;;;;5054606;28;20426;-64
2021/08/28 10:01:01;;;;;;;3.50;2.17;;;16.60;99.90;;;;;;5053816;28;20421;-67
2021/08/28 10:03:28;;;;;;;2.00;1.90;;;16.50;99.90;;;;;;5054885;28;20414;-65
2021/08/28 10:05:55;;;;;;;1.90;1.80;;;16.50;99.90;;;;;;5054935;28;20500;-65
2021/08/28 10:08:20;;;;;;;2.07;1.97;;;16.50;99.90;;;;;;5054264;28;20536;-65
2021/08/28 10:10:47;;;;;;;2.70;2.50;;;16.40;99.90;;;;;;5054713;28;20801;-64
2021/08/28 10:13:13;;;;;;;2.00;1.90;;;16.30;99.90;;;;;;5054435;28;20253;-63
2021/08/28 10:15:41;;;;;;;2.10;1.90;;;16.20;99.90;;;;;;5054561;28;20423;-65
2021/08/28 10:18:08;;;;;;;2.50;2.30;;;16.20;99.90;;;;;;5053980;28;20423;-65
2021/08/28 10:20:34;;;;;;;2.30;2.10;;;16.20;99.90;;;;;;5052993;28;20375;-64
2021/08/28 10:23:06;;;;;;;2.40;2.20;;;16.10;99.90;;;;;;5054510;28;20470;-64
2021/08/28 10:25:37;;;;;;;2.03;1.93;;;16.10;99.90;;;;;;5054471;28;20405;-64
2021/08/28 10:28:05;;;;;;;2.77;2.57;;;16.00;99.90;;;;;;5053889;28;20467;-65
2021/08/28 10:30:32;;;;;;;2.57;2.37;;;15.90;99.90;;;;;;5054194;28;20894;-65
2021/08/28 10:32:57;;;;;;;2.20;2.10;;;15.90;99.90;;;;;;5054126;28;20422;-64
2021/08/28 10:35:24;;;;;;;2.30;2.10;;;15.80;99.90;;;;;;5054129;28;20912;-63
2021/08/28 10:37:50;;;;;;;2.20;2.00;;;15.90;99.90;;;;;;5053576;28;20243;-65
2021/08/28 10:40:30;;;;;;;2.83;2.67;;;15.90;99.90;;;;;;5055180;28;20494;-63
2021/08/28 10:43:00;;;;;;;1.43;1.33;;;15.80;99.90;;;;;;5054011;28;20777;-64
2021/08/28 10:45:33;;;;;;;2.67;2.47;;;15.70;99.90;;;;;;5053817;28;20454;-64
2021/08/28 10:48:09;;;;;;;2.50;2.30;;;15.80;99.90;;;;;;5053289;28;20425;-65
2021/08/28 10:50:40;;;;;;;2.57;2.37;;;15.80;99.90;;;;;;5053890;28;20495;-64
2021/08/28 10:53:07;;;;;;;3.13;2.77;;;16.10;99.90;;;;;;5054416;28;20722;-65
2021/08/28 10:55:48;;;;;;;2.40;1.80;;;16.40;99.90;;;;;;5072237;28;20416;-66
2021/08/28 10:58:25;;;;;;;3.53;2.73;;;16.70;99.90;;;;;;5073220;28;20453;-65
2021/08/28 11:00:54;;;;;;;1.73;1.63;;;17.00;99.90;;;;;;5073845;28;20398;-64
2021/08/28 11:03:32;;;;;;;1.10;1.10;;;17.40;99.90;;;;;;5073873;28;20393;-64
2021/08/28 11:06:16;;;;;;;1.37;1.27;;;17.80;99.90;;;;;;5073728;28;20912;-64
2021/08/28 11:09:01;;;;;;;1.70;1.60;;;18.00;99.90;;;;;;5072335;28;20788;-64
2021/08/28 11:11:36;;;;;;;1.90;1.70;;;18.30;99.90;;;;;;5072396;28;20472;-64
2021/08/28 11:14:16;;;;;;;1.50;1.40;;;18.70;99.90;;;;;;5073582;28;20464;-65
2021/08/28 11:16:42;;;;;;;2.07;1.97;;;19.20;99.90;;;;;;5073024;28;20485;-65
2021/08/28 11:19:32;;;;;;;1.20;1.20;;;19.60;99.90;;;;;;5072130;28;20508;-65
2021/08/28 11:21:58;;;;;;;1.50;1.40;;;19.80;99.90;;;;;;5071748;28;20178;-64
2021/08/28 11:24:26;;;;;;;1.53;1.20;;;20.00;99.90;;;;;;5055775;28;20769;-65
2021/08/28 11:27:02;;;;;;;1.53;1.20;;;19.90;99.90;;;;;;5052724;28;20986;-64
2021/08/28 11:29:41;;;;;;;1.20;1.20;;;19.90;99.90;;;;;;5053470;28;20428;-65
2021/08/28 11:32:21;;;;;;;0.93;0.93;;;20.10;99.90;;;;;;5052949;28;20419;-66
2021/08/28 11:34:54;;;;;;;1.23;1.00;;;20.00;99.90;;;;;;5053053;28;20410;-65
2021/08/28 11:37:26;;;;;;;3.23;1.60;;;20.10;99.90;;;;;;5052633;28;20411;-65
2021/08/28 11:39:52;;;;;;;1.37;1.33;;;20.00;99.90;;;;;;5051739;28;20439;-65
2021/08/28 11:42:18;;;;;;;0.90;0.90;;;20.00;99.90;;;;;;5053284;28;20469;-65
2021/08/28 11:44:51;;;;;;;1.10;1.10;;;19.90;99.90;;;;;;5053252;28;20435;-65
2021/08/28 11:47:17;;;;;;;1.40;1.30;;;19.70;99.90;;;;;;5051270;28;20220;-66
2021/08/28 11:49:44;;;;;;;1.47;1.30;;;19.70;99.90;;;;;;5065360;28;20520;-66
2021/08/28 11:52:10;;;;;;;1.40;1.30;;;19.80;99.90;;;;;;5073082;28;20466;-65
2021/08/28 11:54:35;;;;;;;1.47;1.17;;;19.80;99.90;;;;;;5073151;28;20479;-66
2021/08/28 11:57:02;;;;;;;1.20;1.20;;;19.80;99.90;;;;;;5072743;28;20172;-66
2021/08/28 11:59:39;;;;;;;0.90;0.90;;;19.80;99.90;;;;;;5072900;28;20422;-64
2021/08/28 12:02:05;;;;;;;1.27;1.17;;;19.60;99.90;;;;;;5073152;28;20400;-64
2021/08/28 12:04:36;;;;;;;1.10;1.00;;;19.50;99.90;;;;;;5059714;28;20424;-66
2021/08/28 12:07:04;;;;;;;1.00;1.00;;;19.30;99.90;;;;;;5052429;28;20454;-64
2021/08/28 12:09:30;;;;;;;0.90;0.90;;;19.30;99.90;;;;;;5063456;28;20485;-64
2021/08/28 12:11:57;;;;;;;0.77;0.77;;;19.40;99.90;;;;;;5073097;28;20395;-65
2021/08/28 12:14:28;;;;;;;1.27;0.90;;;19.50;99.90;;;;;;5071549;28;20389;-65
2021/08/28 12:16:54;;;;;;;0.80;0.80;;;19.70;99.90;;;;;;5071032;28;20639;-64
2021/08/28 12:19:21;;;;;;;1.30;0.97;;;19.70;99.90;;;;;;5072764;28;20426;-64
2021/08/28 12:21:56;;;;;;;0.93;0.93;;;19.70;99.90;;;;;;5072903;28;20410;-65
2021/08/28 12:24:30;;;;;;;0.70;0.70;;;19.90;99.90;;;;;;5071112;28;20739;-66
2021/08/28 12:27:07;;;;;;;1.03;1.03;;;20.00;99.90;;;;;;5072437;28;20426;-66
2021/08/28 12:29:43;;;;;;;0.93;0.83;;;20.00;99.90;;;;;;5075036;28;20406;-63
2021/08/28 12:32:10;;;;;;;1.30;1.00;;;20.00;99.90;;;;;;5076453;28;20427;-64
2021/08/28 12:34:40;;;;;;;1.27;1.00;;;19.80;99.90;;;;;;5076399;28;20399;-64
2021/08/28 12:37:09;;;;;;;0.90;0.90;;;19.70;99.90;;;;;;5076060;28;20386;-64
2021/08/28 12:39:37;;;;;;;0.90;0.77;;;19.60;99.90;;;;;;5059212;28;20822;-65
2021/08/28 12:42:04;;;;;;;0.77;0.77;;;19.50;99.90;;;;;;5056236;28;20462;-64
2021/08/28 12:44:31;;;;;;;0.80;0.80;;;19.40;99.90;;;;;;5056248;28;20382;-65
2021/08/28 12:46:59;;;;;;;1.67;1.00;;;19.20;99.90;;;;;;5055933;28;20425;-64
2021/08/28 12:49:26;;;;;;;0.90;0.90;;;19.20;99.90;;;;;;5055980;28;20459;-64